createdAt,value
2023-06-01T00:02:27.262Z,11.80
2023-06-01T00:04:54.725Z,11.78
2023-06-01T00:07:22.238Z,11.74
2023-06-01T00:09:49.358Z,11.74
2023-06-01T00:12:16.500Z,11.67
2023-06-01T00:14:43.586Z,11.66
2023-06-01T00:17:11.133Z,11.73
2023-06-01T00:19:40.049Z,11.78
2023-06-01T00:22:08.498Z,11.76
2023-06-01T00:24:35.815Z,11.76
2023-06-01T00:27:02.904Z,11.76
2023-06-01T00:29:30.604Z,11.71
2023-06-01T00:31:57.917Z,11.68
2023-06-01T00:34:25.161Z,11.68
2023-06-01T00:36:52.217Z,11.67
2023-06-01T00:39:19.880Z,11.65
2023-06-01T00:41:47.007Z,11.65
2023-06-01T00:44:13.965Z,11.58
2023-06-01T00:46:41.120Z,11.56
2023-06-01T00:49:08.520Z,11.56
2023-06-01T00:51:36.584Z,11.56
2023-06-01T00:54:03.883Z,11.56
2023-06-01T00:56:33.591Z,11.56
2023-06-01T00:59:01.192Z,11.58
2023-06-01T01:01:28.178Z,11.59
2023-06-01T01:03:59.026Z,11.63
2023-06-01T01:06:52.345Z,11.63
2023-06-01T01:09:39.261Z,11.63
2023-06-01T01:12:13.822Z,11.65
2023-06-01T01:15:01.215Z,11.69
2023-06-01T01:17:40.108Z,11.67
2023-06-01T01:20:12.310Z,11.67
2023-06-01T01:22:39.836Z,11.68
2023-06-01T01:25:33.445Z,11.62
2023-06-01T01:28:33.078Z,11.62
2023-06-01T01:31:03.201Z,11.64
2023-06-01T01:33:32.580Z,11.65
2023-06-01T01:36:02.111Z,11.67
2023-06-01T01:38:29.654Z,11.69
2023-06-01T01:40:57.506Z,11.65
2023-06-01T01:43:25.412Z,11.60
2023-06-01T01:46:04.259Z,11.51
2023-06-01T01:48:38.689Z,11.50
2023-06-01T01:51:21.733Z,11.54
2023-06-01T01:53:51.928Z,11.53
2023-06-01T01:56:19.984Z,11.53
2023-06-01T01:58:49.237Z,11.60
2023-06-01T02:01:18.554Z,11.63
2023-06-01T02:03:45.911Z,11.59
2023-06-01T02:06:14.076Z,11.57
2023-06-01T02:08:41.457Z,11.52
2023-06-01T02:11:08.296Z,11.51
2023-06-01T02:13:35.259Z,11.55
2023-06-01T02:16:02.199Z,11.59
2023-06-01T02:18:30.851Z,11.60
2023-06-01T02:20:57.887Z,11.58
2023-06-01T02:23:24.921Z,11.61
2023-06-01T02:25:52.657Z,11.62
2023-06-01T02:28:19.560Z,11.63
2023-06-01T02:30:46.556Z,11.64
2023-06-01T02:33:13.467Z,11.67
2023-06-01T02:35:40.788Z,11.66
2023-06-01T02:38:07.905Z,11.65
2023-06-01T02:40:34.959Z,11.68
2023-06-01T02:43:02.060Z,11.66
2023-06-01T02:45:29.183Z,11.64
2023-06-01T02:47:56.312Z,11.63
2023-06-01T02:50:23.267Z,11.65
2023-06-01T02:52:52.404Z,11.60
2023-06-01T02:55:19.494Z,11.60
2023-06-01T02:58:05.272Z,11.60
2023-06-01T03:00:44.305Z,11.61
2023-06-01T03:03:11.886Z,11.61
2023-06-01T03:05:39.351Z,11.63
2023-06-01T03:08:33.033Z,11.65
2023-06-01T03:11:00.256Z,11.65
2023-06-01T03:13:33.381Z,11.62
2023-06-01T03:16:00.592Z,11.65
2023-06-01T03:18:27.778Z,11.63
2023-06-01T03:20:55.240Z,11.63
2023-06-01T03:23:22.348Z,11.62
2023-06-01T03:25:50.046Z,11.66
2023-06-01T03:28:17.705Z,11.68
2023-06-01T03:30:44.740Z,11.68
2023-06-01T03:33:12.161Z,11.67
2023-06-01T03:35:39.376Z,11.70
2023-06-01T03:38:06.892Z,11.74
2023-06-01T03:40:33.815Z,11.75
2023-06-01T03:43:00.901Z,11.77
2023-06-01T03:45:28.327Z,11.78
2023-06-01T03:47:55.461Z,11.81
2023-06-01T03:50:22.566Z,11.80
2023-06-01T03:52:51.685Z,11.80
2023-06-01T03:55:18.646Z,11.77
2023-06-01T03:58:03.733Z,11.78
2023-06-01T04:00:31.488Z,11.79
2023-06-01T04:03:03.499Z,11.82
2023-06-01T04:05:31.536Z,11.89
2023-06-01T04:07:59.904Z,11.89
2023-06-01T04:10:27.152Z,11.85
2023-06-01T04:12:54.408Z,11.87
2023-06-01T04:15:25.788Z,11.92
2023-06-01T04:17:52.837Z,11.91
2023-06-01T04:20:19.897Z,11.93
2023-06-01T04:22:47.579Z,11.93
2023-06-01T04:25:19.982Z,11.93
2023-06-01T04:27:50.276Z,11.93
2023-06-01T04:30:18.187Z,11.93
2023-06-01T04:32:47.103Z,11.97
2023-06-01T04:35:15.337Z,12.00
2023-06-01T04:37:43.741Z,11.97
2023-06-01T04:40:14.616Z,11.96
2023-06-01T04:42:50.258Z,12.02
2023-06-01T04:45:20.156Z,12.08
2023-06-01T04:47:47.956Z,12.04
2023-06-01T04:50:33.846Z,12.12
2023-06-01T04:53:00.869Z,12.18
2023-06-01T04:55:29.189Z,12.28
2023-06-01T04:57:57.138Z,12.26
2023-06-01T05:00:24.273Z,12.18
2023-06-01T05:02:51.286Z,12.14
2023-06-01T05:05:20.383Z,12.11
2023-06-01T05:07:47.994Z,12.07
2023-06-01T05:10:14.968Z,12.07
2023-06-01T05:12:46.345Z,12.17
2023-06-01T05:15:15.280Z,12.18
2023-06-01T05:17:43.020Z,12.18
2023-06-01T05:20:13.884Z,12.16
2023-06-01T05:22:43.876Z,12.21
2023-06-01T05:25:11.183Z,12.24
2023-06-01T05:27:39.063Z,12.26
2023-06-01T05:30:06.966Z,12.34
2023-06-01T05:32:34.151Z,12.44
2023-06-01T05:35:10.892Z,12.36
2023-06-01T05:37:38.552Z,12.37
2023-06-01T05:40:08.922Z,12.43
2023-06-01T05:42:37.273Z,12.52
2023-06-01T05:45:04.908Z,12.47
2023-06-01T05:47:32.058Z,12.41
2023-06-01T05:49:59.627Z,12.46
2023-06-01T05:52:26.647Z,12.58
2023-06-01T05:54:55.052Z,12.67
2023-06-01T05:57:22.214Z,12.66
2023-06-01T05:59:49.178Z,12.54
2023-06-01T06:02:16.846Z,12.58
2023-06-01T06:04:45.315Z,12.55
2023-06-01T06:07:13.229Z,12.54
2023-06-01T06:09:41.626Z,12.62
2023-06-01T06:12:09.385Z,12.68
2023-06-01T06:14:36.406Z,12.73
2023-06-01T06:17:03.812Z,12.61
2023-06-01T06:19:30.978Z,12.59
2023-06-01T06:21:58.080Z,12.62
2023-06-01T06:24:25.152Z,12.73
2023-06-01T06:26:52.069Z,12.89
2023-06-01T06:29:19.053Z,12.88
2023-06-01T06:31:46.312Z,12.89
2023-06-01T06:34:14.194Z,12.87
2023-06-01T06:36:41.805Z,12.94
2023-06-01T06:39:08.679Z,12.90
2023-06-01T06:41:35.660Z,12.95
2023-06-01T06:44:02.664Z,12.99
2023-06-01T06:46:29.710Z,12.95
2023-06-01T06:48:56.746Z,13.11
2023-06-01T06:51:24.062Z,13.12
2023-06-01T06:53:51.023Z,13.15
2023-06-01T06:56:18.263Z,13.08
2023-06-01T06:58:56.567Z,12.94
2023-06-01T07:01:31.057Z,12.98
2023-06-01T07:03:58.210Z,13.11
2023-06-01T07:06:25.209Z,13.29
2023-06-01T07:08:52.170Z,13.49
2023-06-01T07:11:19.881Z,13.47
2023-06-01T07:13:46.751Z,13.44
2023-06-01T07:16:13.994Z,13.51
2023-06-01T07:18:41.443Z,13.52
2023-06-01T07:21:08.552Z,13.55
2023-06-01T07:23:35.906Z,13.59
2023-06-01T07:26:02.996Z,13.42
2023-06-01T07:28:31.470Z,13.27
2023-06-01T07:30:59.469Z,13.04
2023-06-01T07:33:27.661Z,12.91
2023-06-01T07:35:54.835Z,13.00
2023-06-01T07:38:22.545Z,12.96
2023-06-01T07:40:51.492Z,13.28
2023-06-01T07:43:18.327Z,13.44
2023-06-01T07:45:45.540Z,13.41
2023-06-01T07:48:13.050Z,13.39
2023-06-01T07:50:40.053Z,13.43
2023-06-01T07:53:07.316Z,13.43
2023-06-01T07:55:34.284Z,13.32
2023-06-01T07:58:01.254Z,13.31
2023-06-01T08:00:28.356Z,13.24
2023-06-01T08:02:55.273Z,13.20
2023-06-01T08:05:23.148Z,13.29
2023-06-01T08:07:50.233Z,13.30
2023-06-01T08:10:17.636Z,13.27
2023-06-01T08:12:44.595Z,13.32
2023-06-01T08:15:12.769Z,13.21
2023-06-01T08:17:39.999Z,13.37
2023-06-01T08:20:12.053Z,13.35
2023-06-01T08:22:39.352Z,13.27
2023-06-01T08:25:06.922Z,13.27
2023-06-01T08:27:33.918Z,13.35
2023-06-01T08:30:00.859Z,13.37
2023-06-01T08:32:27.918Z,13.45
2023-06-01T08:34:55.042Z,13.43
2023-06-01T08:37:21.989Z,13.42
2023-06-01T08:39:48.829Z,13.45
2023-06-01T08:42:29.912Z,13.67
2023-06-01T08:44:59.425Z,13.76
2023-06-01T08:47:27.166Z,13.59
2023-06-01T08:49:54.673Z,13.62
2023-06-01T08:52:23.528Z,13.84
2023-06-01T08:54:51.392Z,13.98
2023-06-01T08:57:18.496Z,14.28
2023-06-01T08:59:46.992Z,14.13
2023-06-01T09:02:16.616Z,14.00
2023-06-01T09:04:45.593Z,13.82
2023-06-01T09:07:14.419Z,13.86
2023-06-01T09:09:42.002Z,13.83
2023-06-01T09:12:25.341Z,13.84
2023-06-01T09:15:08.905Z,13.72
2023-06-01T09:17:36.905Z,13.89
2023-06-01T09:20:05.907Z,14.08
2023-06-01T09:22:46.344Z,14.40
2023-06-01T09:25:15.149Z,14.83
2023-06-01T09:27:50.174Z,14.76
2023-06-01T09:30:19.121Z,14.64
2023-06-01T09:32:51.864Z,14.29
2023-06-01T09:35:48.409Z,14.32
2023-06-01T09:38:22.863Z,14.37
2023-06-01T09:41:05.163Z,14.19
2023-06-01T09:43:38.841Z,14.22
2023-06-01T09:46:09.852Z,14.36
2023-06-01T09:48:38.086Z,14.50
2023-06-01T09:51:05.784Z,14.52
2023-06-01T09:53:42.996Z,14.51
2023-06-01T09:56:10.396Z,14.12
2023-06-01T09:58:40.974Z,14.26
2023-06-01T10:01:10.260Z,14.25
2023-06-01T10:03:46.403Z,14.77
2023-06-01T10:06:14.011Z,15.05
2023-06-01T10:08:43.375Z,14.79
2023-06-01T10:11:10.740Z,14.33
2023-06-01T10:13:37.702Z,14.36
2023-06-01T10:16:05.536Z,14.71
2023-06-01T10:18:33.996Z,15.04
2023-06-01T10:21:01.582Z,15.02
2023-06-01T10:23:31.802Z,14.85
2023-06-01T10:26:06.147Z,14.87
2023-06-01T10:28:35.825Z,14.93
2023-06-01T10:31:34.744Z,15.08
2023-06-01T10:34:01.890Z,14.92
2023-06-01T10:36:54.087Z,14.84
2023-06-01T10:39:32.065Z,15.16
2023-06-01T10:42:19.809Z,15.09
2023-06-01T10:44:48.248Z,15.14
2023-06-01T10:47:15.132Z,15.29
2023-06-01T10:49:48.311Z,15.08
2023-06-01T10:52:31.590Z,15.30
2023-06-01T10:55:07.671Z,15.48
2023-06-01T10:57:35.371Z,15.55
2023-06-01T11:00:23.544Z,15.71
2023-06-01T11:02:58.112Z,15.79
2023-06-01T11:05:51.676Z,15.51
2023-06-01T11:08:21.420Z,15.63
2023-06-01T11:10:55.533Z,15.64
2023-06-01T11:13:28.469Z,15.74
2023-06-01T11:16:09.824Z,15.33
2023-06-01T11:19:05.034Z,15.13
2023-06-01T11:21:36.436Z,15.53
2023-06-01T11:24:14.604Z,15.39
2023-06-01T11:26:45.534Z,15.20
2023-06-01T11:29:16.426Z,15.45
2023-06-01T11:31:49.939Z,15.50
2023-06-01T11:34:20.025Z,15.54
2023-06-01T11:36:49.558Z,15.57
2023-06-01T11:39:25.213Z,15.28
2023-06-01T11:42:13.680Z,15.18
2023-06-01T11:44:46.199Z,15.18
2023-06-01T11:47:14.290Z,15.12
2023-06-01T11:49:46.304Z,15.37
2023-06-01T11:52:13.485Z,15.30
2023-06-01T11:54:40.697Z,15.37
2023-06-01T11:57:08.989Z,15.29
2023-06-01T11:59:47.280Z,15.01
2023-06-01T12:02:25.650Z,15.10
2023-06-01T12:05:00.879Z,15.09
2023-06-01T12:07:28.582Z,14.81
2023-06-01T12:09:56.473Z,14.80
2023-06-01T12:12:27.964Z,14.88
2023-06-01T12:14:55.310Z,15.05
2023-06-01T12:17:22.307Z,14.56
2023-06-01T12:19:50.281Z,14.46
2023-06-01T12:22:18.100Z,14.49
2023-06-01T12:24:46.064Z,14.68
2023-06-01T12:27:18.256Z,14.86
2023-06-01T12:29:48.864Z,14.62
2023-06-01T12:32:19.140Z,14.50
2023-06-01T12:35:04.467Z,14.31
2023-06-01T12:37:31.529Z,14.21
2023-06-01T12:39:58.560Z,14.22
2023-06-01T12:42:39.186Z,14.33
2023-06-01T12:45:09.825Z,14.57
2023-06-01T12:47:43.625Z,14.74
2023-06-01T12:50:13.566Z,14.64
2023-06-01T12:52:43.475Z,14.42
2023-06-01T12:55:11.219Z,14.17
2023-06-01T12:57:39.488Z,14.22
2023-06-01T13:00:07.896Z,14.04
2023-06-01T13:02:36.898Z,14.18
2023-06-01T13:05:06.168Z,14.18
2023-06-01T13:07:33.268Z,14.43
2023-06-01T13:10:00.450Z,14.88
2023-06-01T13:12:29.249Z,15.19
2023-06-01T13:14:57.073Z,15.18
2023-06-01T13:17:24.212Z,15.04
2023-06-01T13:19:51.275Z,14.72
2023-06-01T13:22:18.248Z,14.81
2023-06-01T13:27:15.400Z,15.45
2023-06-01T13:29:43.199Z,15.30
2023-06-01T13:32:10.532Z,14.96
2023-06-01T13:34:37.684Z,15.17
2023-06-01T13:37:05.575Z,15.12
2023-06-01T13:39:32.552Z,15.34
2023-06-01T13:41:59.458Z,15.23
2023-06-01T13:44:26.896Z,15.02
2023-06-01T13:46:54.107Z,14.94
2023-06-01T13:49:21.961Z,15.19
2023-06-01T13:51:50.265Z,15.45
2023-06-01T13:54:17.612Z,15.48
2023-06-01T13:56:45.601Z,15.29
2023-06-01T13:59:12.937Z,15.21
2023-06-01T14:01:39.954Z,15.10
2023-06-01T14:04:07.368Z,15.20
2023-06-01T14:06:35.432Z,15.15
2023-06-01T14:09:02.415Z,15.16
2023-06-01T14:11:31.168Z,15.40
2023-06-01T14:13:58.468Z,15.16
2023-06-01T14:16:25.924Z,15.08
2023-06-01T14:18:52.872Z,15.24
2023-06-01T14:21:19.920Z,15.21
2023-06-01T14:23:46.892Z,14.87
2023-06-01T14:26:14.001Z,14.76
2023-06-01T14:28:41.165Z,14.72
2023-06-01T14:31:08.624Z,14.61
2023-06-01T14:33:35.751Z,14.37
2023-06-01T14:36:02.757Z,14.39
2023-06-01T14:38:29.663Z,14.40
2023-06-01T14:40:57.310Z,14.64
2023-06-01T14:43:24.333Z,14.84
2023-06-01T14:45:51.365Z,14.92
2023-06-01T14:48:18.543Z,15.04
2023-06-01T14:50:45.623Z,14.91
2023-06-01T14:53:12.946Z,14.81
2023-06-01T14:55:43.362Z,14.78
2023-06-01T14:58:10.630Z,14.57
2023-06-01T15:00:38.206Z,14.57
2023-06-01T15:03:05.739Z,14.80
2023-06-01T15:05:32.963Z,15.04
2023-06-01T15:08:00.489Z,15.25
2023-06-01T15:10:27.769Z,15.12
2023-06-01T15:12:54.763Z,14.92
2023-06-01T15:15:21.700Z,14.78
2023-06-01T15:17:48.782Z,14.88
2023-06-01T15:20:16.160Z,14.82
2023-06-01T15:22:43.198Z,14.74
2023-06-01T15:25:10.466Z,14.76
2023-06-01T15:27:37.583Z,14.80
2023-06-01T15:30:05.513Z,14.73
2023-06-01T15:32:32.889Z,14.73
2023-06-01T15:34:59.960Z,14.73
2023-06-01T15:37:26.962Z,14.48
2023-06-01T15:39:54.270Z,14.50
2023-06-01T15:42:21.265Z,14.42
2023-06-01T15:44:48.153Z,14.37
2023-06-01T15:47:15.045Z,14.54
2023-06-01T15:49:43.098Z,14.38
2023-06-01T15:52:10.803Z,14.28
2023-06-01T15:54:38.239Z,14.33
2023-06-01T15:57:05.715Z,14.19
2023-06-01T15:59:32.913Z,14.08
2023-06-01T16:02:02.008Z,13.89
2023-06-01T16:04:29.149Z,13.74
2023-06-01T16:06:57.565Z,13.73
2023-06-01T16:09:24.723Z,13.59
2023-06-01T16:11:51.625Z,13.58
2023-06-01T16:14:19.973Z,13.45
2023-06-01T16:16:46.917Z,13.45
2023-06-01T16:19:14.279Z,13.76
2023-06-01T16:21:41.194Z,13.96
2023-06-01T16:24:08.460Z,13.76
2023-06-01T16:26:35.636Z,13.70
2023-06-01T16:29:02.514Z,13.80
2023-06-01T16:31:29.527Z,13.74
2023-06-01T16:33:56.687Z,13.89
2023-06-01T16:36:23.704Z,14.01
2023-06-01T16:38:50.723Z,13.91
2023-06-01T16:41:17.885Z,13.82
2023-06-01T16:43:46.102Z,13.75
2023-06-01T16:46:13.358Z,13.75
2023-06-01T16:48:40.549Z,13.81
2023-06-01T16:51:07.482Z,13.79
2023-06-01T16:53:34.510Z,13.57
2023-06-01T16:56:01.792Z,13.63
2023-06-01T16:58:29.049Z,13.71
2023-06-01T17:00:56.020Z,13.56
2023-06-01T17:03:23.120Z,13.53
2023-06-01T17:05:50.209Z,13.52
2023-06-01T17:08:17.293Z,13.35
2023-06-01T17:10:45.087Z,13.33
2023-06-01T17:13:12.062Z,13.29
2023-06-01T17:15:39.322Z,13.36
2023-06-01T17:18:06.437Z,13.39
2023-06-01T17:20:33.330Z,13.33
2023-06-01T17:23:00.403Z,13.17
2023-06-01T17:25:27.259Z,13.07
2023-06-01T17:27:54.269Z,13.04
2023-06-01T17:30:21.298Z,13.07
2023-06-01T17:32:48.444Z,13.19
2023-06-01T17:35:15.439Z,13.22
2023-06-01T17:37:42.851Z,13.25
2023-06-01T17:40:10.199Z,13.19
2023-06-01T17:42:37.178Z,13.16
2023-06-01T17:45:04.568Z,13.15
2023-06-01T17:47:31.718Z,13.19
2023-06-01T17:49:58.668Z,13.10
2023-06-01T17:52:26.205Z,13.11
2023-06-01T17:54:54.254Z,12.99
2023-06-01T17:57:21.350Z,12.94
2023-06-01T17:59:49.960Z,12.94
2023-06-01T18:02:17.038Z,12.98
2023-06-01T18:04:43.936Z,12.95
2023-06-01T18:07:10.895Z,12.90
2023-06-01T18:09:38.222Z,12.86
2023-06-01T18:12:06.153Z,12.81
2023-06-01T18:15:05.812Z,12.71
2023-06-01T18:17:33.009Z,12.54
2023-06-01T18:20:00.071Z,12.56
2023-06-01T18:22:27.013Z,12.60
2023-06-01T18:24:54.254Z,12.56
2023-06-01T18:27:21.567Z,12.50
2023-06-01T18:29:48.504Z,12.40
2023-06-01T18:32:15.749Z,12.41
2023-06-01T18:34:42.707Z,12.44
2023-06-01T18:37:09.595Z,12.39
2023-06-01T18:39:36.677Z,12.38
2023-06-01T18:42:04.825Z,12.41
2023-06-01T18:44:31.675Z,12.44
2023-06-01T18:46:58.752Z,12.46
2023-06-01T18:49:25.788Z,12.47
2023-06-01T18:51:55.811Z,12.47
2023-06-01T18:54:22.782Z,12.42
2023-06-01T18:56:49.757Z,12.39
2023-06-01T18:59:16.842Z,12.35
2023-06-01T19:01:44.071Z,12.33
2023-06-01T19:04:11.109Z,12.31
2023-06-01T19:06:38.018Z,12.25
2023-06-01T19:09:05.193Z,12.29
2023-06-01T19:11:32.207Z,12.32
2023-06-01T19:13:59.062Z,12.31
2023-06-01T19:16:31.753Z,12.28
2023-06-01T19:18:59.693Z,12.30
2023-06-01T19:21:33.453Z,12.26
2023-06-01T19:24:03.037Z,12.24
2023-06-01T19:26:32.064Z,12.28
2023-06-01T19:29:04.540Z,12.29
2023-06-01T19:31:36.150Z,12.28
2023-06-01T19:34:08.317Z,12.24
2023-06-01T19:36:44.946Z,12.18
2023-06-01T19:39:32.515Z,12.14
2023-06-01T19:42:07.844Z,12.09
2023-06-01T19:44:35.800Z,12.04
2023-06-01T19:47:04.480Z,12.06
2023-06-01T19:49:42.124Z,12.08
2023-06-01T19:52:12.434Z,12.03
2023-06-01T19:54:43.001Z,12.02
2023-06-01T19:57:09.999Z,12.02
2023-06-01T19:59:39.277Z,12.00
2023-06-01T20:02:08.944Z,11.99
2023-06-01T20:04:35.921Z,12.01
2023-06-01T20:07:02.998Z,12.00
2023-06-01T20:09:30.089Z,12.02
2023-06-01T20:11:58.453Z,11.94
2023-06-01T20:14:29.636Z,11.92
2023-06-01T20:16:58.952Z,11.89
2023-06-01T20:19:28.389Z,11.87
2023-06-01T20:21:59.255Z,11.91
2023-06-01T20:24:31.225Z,11.91
2023-06-01T20:27:00.706Z,11.88
2023-06-01T20:29:30.111Z,11.86
2023-06-01T20:31:59.739Z,11.82
2023-06-01T20:34:28.353Z,11.78
2023-06-01T20:36:55.512Z,11.65
2023-06-01T20:39:23.974Z,11.62
2023-06-01T20:41:56.148Z,11.67
2023-06-01T20:44:23.599Z,11.66
2023-06-01T20:46:52.061Z,11.67
2023-06-01T20:49:24.464Z,11.63
2023-06-01T20:51:51.872Z,11.54
2023-06-01T20:54:26.873Z,11.46
2023-06-01T20:56:58.599Z,11.39
2023-06-01T20:59:32.681Z,11.35
2023-06-01T21:02:01.796Z,11.39
2023-06-01T21:04:31.851Z,11.39
2023-06-01T21:06:59.754Z,11.42
2023-06-01T21:09:27.130Z,11.44
2023-06-01T21:11:56.946Z,11.42
2023-06-01T21:14:23.983Z,11.41
2023-06-01T21:16:51.270Z,11.36
2023-06-01T21:19:18.614Z,11.34
2023-06-01T21:21:45.800Z,11.38
2023-06-01T21:24:13.772Z,11.39
2023-06-01T21:26:40.883Z,11.38
2023-06-01T21:29:10.236Z,11.34
2023-06-01T21:31:37.603Z,11.32
2023-06-01T21:34:04.747Z,11.30
2023-06-01T21:36:31.901Z,11.27
2023-06-01T21:38:58.994Z,11.26
2023-06-01T21:41:26.322Z,11.25
2023-06-01T21:43:53.559Z,11.24
2023-06-01T21:46:20.560Z,11.26
2023-06-01T21:48:47.818Z,11.29
2023-06-01T21:51:15.253Z,11.28
2023-06-01T21:53:42.262Z,11.22
2023-06-01T21:56:09.330Z,11.26
2023-06-01T21:58:39.047Z,11.22
2023-06-01T22:01:07.209Z,11.20
2023-06-01T22:03:35.045Z,11.16
2023-06-01T22:06:02.632Z,11.17
2023-06-01T22:08:29.762Z,11.15
2023-06-01T22:10:56.745Z,11.19
2023-06-01T22:13:23.788Z,11.21
2023-06-01T22:15:50.851Z,11.22
2023-06-01T22:18:18.661Z,11.18
2023-06-01T22:20:45.746Z,11.16
2023-06-01T22:23:12.886Z,11.17
2023-06-01T22:25:40.015Z,11.17
2023-06-01T22:28:07.173Z,11.16
2023-06-01T22:30:34.296Z,11.11
2023-06-01T22:33:01.864Z,11.16
2023-06-01T22:35:29.082Z,11.14
2023-06-01T22:37:56.423Z,11.17
2023-06-01T22:40:24.746Z,11.20
2023-06-01T22:42:53.585Z,11.22
2023-06-01T22:45:21.271Z,11.22
2023-06-01T22:47:48.963Z,11.22
2023-06-01T22:50:19.799Z,11.22
2023-06-01T22:52:49.277Z,11.20
2023-06-01T22:55:16.849Z,11.19
2023-06-01T22:57:43.991Z,11.18
2023-06-01T23:00:12.507Z,11.19
2023-06-01T23:02:39.595Z,11.16
2023-06-01T23:05:06.859Z,11.10
2023-06-01T23:07:34.159Z,11.12
2023-06-01T23:10:01.781Z,11.11
2023-06-01T23:12:29.106Z,11.03
2023-06-01T23:14:56.521Z,11.01
2023-06-01T23:17:25.409Z,10.99
2023-06-01T23:19:53.061Z,11.00
2023-06-01T23:22:20.349Z,11.07
2023-06-01T23:24:47.666Z,11.08
2023-06-01T23:27:15.166Z,11.07
2023-06-01T23:29:42.172Z,11.08
2023-06-01T23:32:11.277Z,11.09
2023-06-01T23:34:38.709Z,11.09
2023-06-01T23:37:06.631Z,11.07
2023-06-01T23:39:33.854Z,11.05
2023-06-01T23:42:01.045Z,11.04
2023-06-01T23:44:28.188Z,11.04
2023-06-01T23:46:55.288Z,11.05
2023-06-01T23:49:22.480Z,11.07
2023-06-01T23:51:49.625Z,11.08
2023-06-01T23:54:16.673Z,11.07
2023-06-01T23:56:43.885Z,11.03
2023-06-01T23:59:11.379Z,11.03
